首页
METAR-TAF:

METAR-TAF

机场 :

马普托国际机场

马普托, 莫桑比克

纬度: 25-55S, 经度: 032-34E, 海拔: 39米

当前天气观测

该预报发布于23分钟前的21:00 UTC
风速2节,风向多变
温度 15°C
湿度 88%
气压 1029 hPa
能见度10公里或以上
少量云层高于2500英尺

METAR: FQMA 212100Z VRB02KT 9999 FEW025 15/13 Q1029 NOSIG

时间: 23:23 (21:23 UTC)

预报

该预报发布于5小时和23分钟前的16:00 UTC
预报有效从21日的 18点(UTC)到 22日的 24点(UTC)
风速3节,风向多变
能见度10公里或以上
少量云层高于2500英尺
成为
从 22日的 00点(UTC)到 22日的 02点(UTC)
风速6节,风向西南
散云层高于2500英尺
成为
从 22日的 08点(UTC)到 22日的 10点(UTC)
风速8节,风向南转南东
成为
从 22日的 12点(UTC)到 22日的 14点(UTC)
风速12节,风向
能见度10公里或以上
1500米以下无云,无积雨云
成为
从 22日的 18点(UTC)到 22日的 20点(UTC)
风速8节,风向

TAF: FQMA 211600Z 2118/2224 VRB03KT 9999 FEW025 BECMG 2200/2202 22006KT SCT025 BECMG 2208/2210 15008KT BECMG 2212/2214 08012KT CAVOK BECMG 2218/2220 35008KT TX27/2213Z TN13/2203Z

超过4000个机场的气象观测和天气预报(METAR&TAF报告)。

可查询的气象台以黄色和红色小点在地图上表示。

将鼠标移到小点上方,可查看气象台名称。

然后点击查看天气观测和预报。

如需切换地图:点击带黑十字的绿色按钮放大地图;点击带横线的绿色按钮缩小地图;或者点击绿色箭头查看邻近地区的地图。


METAR-TAF: